sensor_id;sensor_type;location;lat;lon;timestamp;P1;durP1;ratioP1;P2;durP2;ratioP2
51236;SDS011;37312;47.550;18.818;2022-07-23T00:00:34;6.20;;;5.70;;
51236;SDS011;37312;47.550;18.818;2022-07-23T00:03:00;11.02;;;8.25;;
51236;SDS011;37312;47.550;18.818;2022-07-23T00:05:25;10.48;;;6.60;;
51236;SDS011;37312;47.550;18.818;2022-07-23T00:07:52;6.82;;;6.20;;
51236;SDS011;37312;47.550;18.818;2022-07-23T00:10:18;6.70;;;5.93;;
51236;SDS011;37312;47.550;18.818;2022-07-23T00:12:44;11.07;;;6.82;;
51236;SDS011;37312;47.550;18.818;2022-07-23T00:15:09;9.13;;;5.78;;
51236;SDS011;37312;47.550;18.818;2022-07-23T00:17:36;5.90;;;5.50;;
51236;SDS011;37312;47.550;18.818;2022-07-23T00:20:02;16.17;;;6.37;;
51236;SDS011;37312;47.550;18.818;2022-07-23T00:22:29;6.25;;;5.75;;
51236;SDS011;37312;47.550;18.818;2022-07-23T00:24:55;7.28;;;5.70;;
51236;SDS011;37312;47.550;18.818;2022-07-23T00:27:22;6.47;;;5.95;;
51236;SDS011;37312;47.550;18.818;2022-07-23T00:29:48;6.55;;;5.70;;
51236;SDS011;37312;47.550;18.818;2022-07-23T00:32:14;6.57;;;5.97;;
51236;SDS011;37312;47.550;18.818;2022-07-23T00:34:41;6.80;;;6.18;;
51236;SDS011;37312;47.550;18.818;2022-07-23T00:37:07;7.65;;;6.95;;
51236;SDS011;37312;47.550;18.818;2022-07-23T00:39:33;7.00;;;6.37;;
51236;SDS011;37312;47.550;18.818;2022-07-23T00:41:58;7.07;;;5.82;;
51236;SDS011;37312;47.550;18.818;2022-07-23T00:44:26;6.93;;;6.40;;
51236;SDS011;37312;47.550;18.818;2022-07-23T00:46:54;6.40;;;5.90;;
51236;SDS011;37312;47.550;18.818;2022-07-23T00:49:24;9.05;;;6.35;;
51236;SDS011;37312;47.550;18.818;2022-07-23T00:51:55;6.68;;;6.18;;
51236;SDS011;37312;47.550;18.818;2022-07-23T00:54:23;7.47;;;6.55;;
51236;SDS011;37312;47.550;18.818;2022-07-23T00:56:50;6.57;;;6.00;;
51236;SDS011;37312;47.550;18.818;2022-07-23T00:59:17;6.70;;;5.43;;
51236;SDS011;37312;47.550;18.818;2022-07-23T01:01:43;6.82;;;6.15;;
51236;SDS011;37312;47.550;18.818;2022-07-23T01:04:10;6.05;;;5.45;;
51236;SDS011;37312;47.550;18.818;2022-07-23T01:06:37;6.53;;;6.03;;
51236;SDS011;37312;47.550;18.818;2022-07-23T01:09:06;5.45;;;4.97;;
51236;SDS011;37312;47.550;18.818;2022-07-23T01:11:33;9.52;;;6.30;;
51236;SDS011;37312;47.550;18.818;2022-07-23T01:14:08;7.47;;;6.75;;
51236;SDS011;37312;47.550;18.818;2022-07-23T01:16:35;7.85;;;6.85;;
51236;SDS011;37312;47.550;18.818;2022-07-23T01:19:02;6.65;;;5.95;;
51236;SDS011;37312;47.550;18.818;2022-07-23T01:21:30;7.80;;;7.05;;
51236;SDS011;37312;47.550;18.818;2022-07-23T01:23:56;5.60;;;5.07;;
51236;SDS011;37312;47.550;18.818;2022-07-23T01:26:22;6.45;;;5.95;;
51236;SDS011;37312;47.550;18.818;2022-07-23T01:28:48;6.95;;;6.35;;
51236;SDS011;37312;47.550;18.818;2022-07-23T01:31:14;6.80;;;6.22;;
51236;SDS011;37312;47.550;18.818;2022-07-23T01:33:40;6.43;;;5.82;;
51236;SDS011;37312;47.550;18.818;2022-07-23T01:36:06;8.65;;;6.75;;
51236;SDS011;37312;47.550;18.818;2022-07-23T01:38:32;7.47;;;6.87;;
51236;SDS011;37312;47.550;18.818;2022-07-23T01:40:58;6.57;;;6.05;;
51236;SDS011;37312;47.550;18.818;2022-07-23T01:43:24;6.65;;;6.15;;
51236;SDS011;37312;47.550;18.818;2022-07-23T01:45:50;7.40;;;6.70;;
51236;SDS011;37312;47.550;18.818;2022-07-23T01:48:16;7.40;;;5.68;;
51236;SDS011;37312;47.550;18.818;2022-07-23T01:50:42;6.80;;;6.32;;
51236;SDS011;37312;47.550;18.818;2022-07-23T01:53:08;7.07;;;6.37;;
51236;SDS011;37312;47.550;18.818;2022-07-23T01:55:34;6.82;;;6.10;;
51236;SDS011;37312;47.550;18.818;2022-07-23T01:58:00;6.20;;;5.65;;
51236;SDS011;37312;47.550;18.818;2022-07-23T02:00:26;7.35;;;6.65;;
51236;SDS011;37312;47.550;18.818;2022-07-23T02:02:52;6.82;;;6.32;;
51236;SDS011;37312;47.550;18.818;2022-07-23T02:05:18;11.63;;;7.40;;
51236;SDS011;37312;47.550;18.818;2022-07-23T02:07:44;8.23;;;7.12;;
51236;SDS011;37312;47.550;18.818;2022-07-23T02:10:11;7.72;;;7.00;;
51236;SDS011;37312;47.550;18.818;2022-07-23T02:12:37;6.93;;;6.28;;
51236;SDS011;37312;47.550;18.818;2022-07-23T02:15:03;7.03;;;6.43;;
51236;SDS011;37312;47.550;18.818;2022-07-23T02:17:29;8.35;;;6.25;;
51236;SDS011;37312;47.550;18.818;2022-07-23T02:19:55;6.80;;;6.12;;
51236;SDS011;37312;47.550;18.818;2022-07-23T02:22:21;7.60;;;6.75;;
51236;SDS011;37312;47.550;18.818;2022-07-23T02:24:47;7.87;;;6.50;;
51236;SDS011;37312;47.550;18.818;2022-07-23T02:27:13;6.35;;;5.87;;
51236;SDS011;37312;47.550;18.818;2022-07-23T02:29:39;12.85;;;6.37;;
51236;SDS011;37312;47.550;18.818;2022-07-23T02:32:05;8.73;;;6.87;;
51236;SDS011;37312;47.550;18.818;2022-07-23T02:34:31;6.62;;;6.12;;
51236;SDS011;37312;47.550;18.818;2022-07-23T02:36:57;7.53;;;6.65;;
51236;SDS011;37312;47.550;18.818;2022-07-23T02:39:23;6.85;;;6.35;;
51236;SDS011;37312;47.550;18.818;2022-07-23T02:41:49;7.85;;;7.15;;
51236;SDS011;37312;47.550;18.818;2022-07-23T02:44:14;11.25;;;6.45;;
51236;SDS011;37312;47.550;18.818;2022-07-23T02:46:40;8.05;;;7.45;;
51236;SDS011;37312;47.550;18.818;2022-07-23T02:49:06;7.43;;;6.93;;
51236;SDS011;37312;47.550;18.818;2022-07-23T02:51:32;7.78;;;7.07;;
51236;SDS011;37312;47.550;18.818;2022-07-23T02:53:58;6.90;;;6.30;;
51236;SDS011;37312;47.550;18.818;2022-07-23T02:56:24;16.92;;;7.57;;
51236;SDS011;37312;47.550;18.818;2022-07-23T02:58:50;7.30;;;6.80;;
51236;SDS011;37312;47.550;18.818;2022-07-23T03:01:16;7.55;;;7.05;;
51236;SDS011;37312;47.550;18.818;2022-07-23T03:03:42;10.27;;;6.28;;
51236;SDS011;37312;47.550;18.818;2022-07-23T03:06:08;7.45;;;6.72;;
51236;SDS011;37312;47.550;18.818;2022-07-23T03:08:34;7.05;;;6.45;;
51236;SDS011;37312;47.550;18.818;2022-07-23T03:11:00;7.18;;;6.40;;
51236;SDS011;37312;47.550;18.818;2022-07-23T03:13:26;6.90;;;6.20;;
51236;SDS011;37312;47.550;18.818;2022-07-23T03:15:53;7.47;;;6.72;;
51236;SDS011;37312;47.550;18.818;2022-07-23T03:18:19;7.22;;;6.53;;
51236;SDS011;37312;47.550;18.818;2022-07-23T03:20:45;6.85;;;6.45;;
51236;SDS011;37312;47.550;18.818;2022-07-23T03:23:11;7.53;;;6.80;;
51236;SDS011;37312;47.550;18.818;2022-07-23T03:25:37;8.07;;;6.85;;
51236;SDS011;37312;47.550;18.818;2022-07-23T03:28:03;8.27;;;7.47;;
51236;SDS011;37312;47.550;18.818;2022-07-23T03:30:29;7.80;;;7.10;;
51236;SDS011;37312;47.550;18.818;2022-07-23T03:32:55;8.52;;;7.82;;
51236;SDS011;37312;47.550;18.818;2022-07-23T03:35:21;7.90;;;7.10;;
51236;SDS011;37312;47.550;18.818;2022-07-23T03:37:47;11.82;;;6.75;;
51236;SDS011;37312;47.550;18.818;2022-07-23T03:40:13;6.62;;;6.12;;
51236;SDS011;37312;47.550;18.818;2022-07-23T03:42:39;8.10;;;7.40;;
51236;SDS011;37312;47.550;18.818;2022-07-23T03:45:06;10.45;;;7.47;;
51236;SDS011;37312;47.550;18.818;2022-07-23T03:47:33;6.57;;;5.93;;
51236;SDS011;37312;47.550;18.818;2022-07-23T03:49:59;10.07;;;6.82;;
51236;SDS011;37312;47.550;18.818;2022-07-23T03:52:25;7.40;;;6.82;;
51236;SDS011;37312;47.550;18.818;2022-07-23T03:54:50;10.18;;;6.72;;
51236;SDS011;37312;47.550;18.818;2022-07-23T03:57:16;11.05;;;8.02;;
51236;SDS011;37312;47.550;18.818;2022-07-23T03:59:43;8.05;;;7.25;;
51236;SDS011;37312;47.550;18.818;2022-07-23T04:02:09;8.75;;;7.32;;
51236;SDS011;37312;47.550;18.818;2022-07-23T04:04:34;8.77;;;6.55;;
51236;SDS011;37312;47.550;18.818;2022-07-23T04:07:01;8.57;;;7.78;;
51236;SDS011;37312;47.550;18.818;2022-07-23T04:09:26;8.60;;;7.72;;
51236;SDS011;37312;47.550;18.818;2022-07-23T04:11:53;11.15;;;7.10;;
51236;SDS011;37312;47.550;18.818;2022-07-23T04:14:19;9.60;;;7.25;;
51236;SDS011;37312;47.550;18.818;2022-07-23T04:16:45;7.15;;;6.40;;
51236;SDS011;37312;47.550;18.818;2022-07-23T04:19:10;9.57;;;6.78;;
51236;SDS011;37312;47.550;18.818;2022-07-23T04:21:37;7.37;;;6.70;;
51236;SDS011;37312;47.550;18.818;2022-07-23T04:24:03;7.95;;;6.57;;
51236;SDS011;37312;47.550;18.818;2022-07-23T04:26:29;8.20;;;7.03;;
51236;SDS011;37312;47.550;18.818;2022-07-23T04:28:55;7.10;;;6.45;;
51236;SDS011;37312;47.550;18.818;2022-07-23T04:31:21;10.88;;;7.82;;
51236;SDS011;37312;47.550;18.818;2022-07-23T04:33:47;8.40;;;7.60;;
51236;SDS011;37312;47.550;18.818;2022-07-23T04:36:13;9.00;;;6.40;;
51236;SDS011;37312;47.550;18.818;2022-07-23T04:38:39;8.23;;;7.43;;
51236;SDS011;37312;47.550;18.818;2022-07-23T04:41:04;7.62;;;6.90;;
51236;SDS011;37312;47.550;18.818;2022-07-23T04:43:31;8.75;;;8.05;;
51236;SDS011;37312;47.550;18.818;2022-07-23T04:45:57;8.02;;;7.43;;
51236;SDS011;37312;47.550;18.818;2022-07-23T04:48:23;7.18;;;6.47;;
51236;SDS011;37312;47.550;18.818;2022-07-23T04:50:49;13.80;;;7.10;;
51236;SDS011;37312;47.550;18.818;2022-07-23T04:53:15;8.93;;;8.05;;
51236;SDS011;37312;47.550;18.818;2022-07-23T04:55:41;13.90;;;8.05;;
51236;SDS011;37312;47.550;18.818;2022-07-23T04:58:07;15.88;;;7.60;;
51236;SDS011;37312;47.550;18.818;2022-07-23T05:00:33;10.65;;;7.80;;
51236;SDS011;37312;47.550;18.818;2022-07-23T05:02:59;9.30;;;6.93;;
51236;SDS011;37312;47.550;18.818;2022-07-23T05:05:25;10.85;;;6.87;;
51236;SDS011;37312;47.550;18.818;2022-07-23T05:07:51;7.68;;;6.65;;
51236;SDS011;37312;47.550;18.818;2022-07-23T05:10:17;7.47;;;6.65;;
51236;SDS011;37312;47.550;18.818;2022-07-23T05:12:43;12.73;;;6.82;;
51236;SDS011;37312;47.550;18.818;2022-07-23T05:15:09;9.32;;;6.95;;
51236;SDS011;37312;47.550;18.818;2022-07-23T05:17:35;12.52;;;8.18;;
51236;SDS011;37312;47.550;18.818;2022-07-23T05:20:00;14.63;;;6.75;;
51236;SDS011;37312;47.550;18.818;2022-07-23T05:22:26;7.55;;;6.57;;
51236;SDS011;37312;47.550;18.818;2022-07-23T05:24:53;7.57;;;7.00;;
51236;SDS011;37312;47.550;18.818;2022-07-23T05:27:18;9.32;;;8.35;;
51236;SDS011;37312;47.550;18.818;2022-07-23T05:29:45;8.20;;;7.18;;
51236;SDS011;37312;47.550;18.818;2022-07-23T05:32:11;11.27;;;7.35;;
51236;SDS011;37312;47.550;18.818;2022-07-23T05:34:36;7.70;;;6.43;;
51236;SDS011;37312;47.550;18.818;2022-07-23T05:37:03;10.38;;;8.75;;
51236;SDS011;37312;47.550;18.818;2022-07-23T05:39:28;8.05;;;7.35;;
51236;SDS011;37312;47.550;18.818;2022-07-23T05:41:54;7.00;;;6.37;;
51236;SDS011;37312;47.550;18.818;2022-07-23T05:44:21;8.15;;;7.35;;
51236;SDS011;37312;47.550;18.818;2022-07-23T05:46:47;9.68;;;8.15;;
51236;SDS011;37312;47.550;18.818;2022-07-23T05:49:13;14.35;;;7.93;;
51236;SDS011;37312;47.550;18.818;2022-07-23T05:51:39;7.65;;;6.97;;
51236;SDS011;37312;47.550;18.818;2022-07-23T05:54:05;11.38;;;7.87;;
51236;SDS011;37312;47.550;18.818;2022-07-23T05:56:31;7.80;;;7.07;;
51236;SDS011;37312;47.550;18.818;2022-07-23T05:58:57;7.93;;;6.78;;
51236;SDS011;37312;47.550;18.818;2022-07-23T06:01:23;7.05;;;6.35;;
51236;SDS011;37312;47.550;18.818;2022-07-23T06:03:49;8.20;;;7.53;;
51236;SDS011;37312;47.550;18.818;2022-07-23T06:06:15;6.30;;;5.85;;
51236;SDS011;37312;47.550;18.818;2022-07-23T06:08:41;6.90;;;6.22;;
51236;SDS011;37312;47.550;18.818;2022-07-23T06:11:07;9.02;;;6.25;;
51236;SDS011;37312;47.550;18.818;2022-07-23T06:13:33;6.80;;;6.15;;
51236;SDS011;37312;47.550;18.818;2022-07-23T06:15:59;6.65;;;5.70;;
51236;SDS011;37312;47.550;18.818;2022-07-23T06:18:25;5.15;;;4.65;;
51236;SDS011;37312;47.550;18.818;2022-07-23T06:20:51;6.78;;;5.32;;
51236;SDS011;37312;47.550;18.818;2022-07-23T06:23:17;6.53;;;5.40;;
51236;SDS011;37312;47.550;18.818;2022-07-23T06:25:43;6.62;;;6.07;;
51236;SDS011;37312;47.550;18.818;2022-07-23T06:28:09;8.80;;;5.62;;
51236;SDS011;37312;47.550;18.818;2022-07-23T06:30:35;10.25;;;6.50;;
51236;SDS011;37312;47.550;18.818;2022-07-23T06:33:01;8.63;;;5.40;;
51236;SDS011;37312;47.550;18.818;2022-07-23T06:35:27;5.70;;;5.30;;
51236;SDS011;37312;47.550;18.818;2022-07-23T06:37:53;6.00;;;5.53;;
51236;SDS011;37312;47.550;18.818;2022-07-23T06:40:19;5.47;;;5.03;;
51236;SDS011;37312;47.550;18.818;2022-07-23T06:42:45;7.10;;;5.15;;
51236;SDS011;37312;47.550;18.818;2022-07-23T06:45:11;6.07;;;5.20;;
51236;SDS011;37312;47.550;18.818;2022-07-23T06:47:37;5.30;;;4.82;;
51236;SDS011;37312;47.550;18.818;2022-07-23T06:50:04;6.30;;;5.70;;
51236;SDS011;37312;47.550;18.818;2022-07-23T06:52:30;5.70;;;5.12;;
51236;SDS011;37312;47.550;18.818;2022-07-23T06:54:56;8.80;;;5.03;;
51236;SDS011;37312;47.550;18.818;2022-07-23T06:57:22;5.62;;;4.93;;
51236;SDS011;37312;47.550;18.818;2022-07-23T06:59:48;5.53;;;5.00;;
51236;SDS011;37312;47.550;18.818;2022-07-23T07:02:14;8.82;;;5.35;;
51236;SDS011;37312;47.550;18.818;2022-07-23T07:04:40;5.60;;;5.10;;
51236;SDS011;37312;47.550;18.818;2022-07-23T07:07:06;5.40;;;4.90;;
51236;SDS011;37312;47.550;18.818;2022-07-23T07:09:32;7.55;;;5.68;;
51236;SDS011;37312;47.550;18.818;2022-07-23T07:11:58;5.57;;;5.12;;
51236;SDS011;37312;47.550;18.818;2022-07-23T07:14:24;5.37;;;4.87;;
51236;SDS011;37312;47.550;18.818;2022-07-23T07:16:50;6.22;;;5.65;;
51236;SDS011;37312;47.550;18.818;2022-07-23T07:19:16;4.60;;;4.20;;
51236;SDS011;37312;47.550;18.818;2022-07-23T07:21:42;5.32;;;4.87;;
51236;SDS011;37312;47.550;18.818;2022-07-23T07:24:08;5.90;;;4.97;;
51236;SDS011;37312;47.550;18.818;2022-07-23T07:26:34;6.70;;;6.03;;
51236;SDS011;37312;47.550;18.818;2022-07-23T07:29:00;5.25;;;4.95;;
51236;SDS011;37312;47.550;18.818;2022-07-23T07:31:26;4.03;;;3.75;;
51236;SDS011;37312;47.550;18.818;2022-07-23T07:33:52;6.10;;;5.53;;
51236;SDS011;37312;47.550;18.818;2022-07-23T07:36:18;8.65;;;5.65;;
51236;SDS011;37312;47.550;18.818;2022-07-23T07:38:44;7.18;;;5.62;;
51236;SDS011;37312;47.550;18.818;2022-07-23T07:41:10;10.43;;;5.10;;
51236;SDS011;37312;47.550;18.818;2022-07-23T07:43:36;6.43;;;4.87;;
51236;SDS011;37312;47.550;18.818;2022-07-23T07:46:03;5.18;;;4.87;;
51236;SDS011;37312;47.550;18.818;2022-07-23T07:48:29;4.70;;;4.35;;
51236;SDS011;37312;47.550;18.818;2022-07-23T07:50:55;7.68;;;6.05;;
51236;SDS011;37312;47.550;18.818;2022-07-23T07:53:21;7.35;;;5.00;;
51236;SDS011;37312;47.550;18.818;2022-07-23T07:55:47;9.10;;;5.97;;
51236;SDS011;37312;47.550;18.818;2022-07-23T07:58:13;6.18;;;5.70;;
51236;SDS011;37312;47.550;18.818;2022-07-23T08:00:39;6.22;;;5.53;;
51236;SDS011;37312;47.550;18.818;2022-07-23T08:03:05;14.63;;;5.25;;
51236;SDS011;37312;47.550;18.818;2022-07-23T08:05:31;5.62;;;5.05;;
51236;SDS011;37312;47.550;18.818;2022-07-23T08:07:58;6.30;;;5.40;;
51236;SDS011;37312;47.550;18.818;2022-07-23T08:10:25;5.30;;;4.90;;
51236;SDS011;37312;47.550;18.818;2022-07-23T08:12:53;5.25;;;4.85;;
51236;SDS011;37312;47.550;18.818;2022-07-23T08:15:22;5.47;;;4.85;;
51236;SDS011;37312;47.550;18.818;2022-07-23T08:17:49;5.45;;;5.05;;
51236;SDS011;37312;47.550;18.818;2022-07-23T08:20:16;5.78;;;4.95;;
51236;SDS011;37312;47.550;18.818;2022-07-23T08:28:10;5.55;;;5.07;;
51236;SDS011;37312;47.550;18.818;2022-07-23T08:30:38;6.57;;;4.65;;
51236;SDS011;37312;47.550;18.818;2022-07-23T08:33:06;5.90;;;5.25;;
51236;SDS011;37312;47.550;18.818;2022-07-23T08:35:42;5.05;;;4.50;;
51236;SDS011;37312;47.550;18.818;2022-07-23T08:38:12;9.57;;;4.47;;
51236;SDS011;37312;47.550;18.818;2022-07-23T08:40:41;4.40;;;4.10;;
51236;SDS011;37312;47.550;18.818;2022-07-23T08:43:11;6.03;;;5.22;;
51236;SDS011;37312;47.550;18.818;2022-07-23T08:45:40;5.40;;;4.95;;
51236;SDS011;37312;47.550;18.818;2022-07-23T08:48:09;5.57;;;4.53;;
51236;SDS011;37312;47.550;18.818;2022-07-23T08:50:37;4.80;;;4.45;;
51236;SDS011;37312;47.550;18.818;2022-07-23T08:53:08;5.78;;;5.20;;
51236;SDS011;37312;47.550;18.818;2022-07-23T08:55:35;7.35;;;5.37;;
51236;SDS011;37312;47.550;18.818;2022-07-23T08:58:01;5.50;;;4.85;;
51236;SDS011;37312;47.550;18.818;2022-07-23T09:00:27;5.78;;;5.28;;
51236;SDS011;37312;47.550;18.818;2022-07-23T09:02:54;5.65;;;5.18;;
51236;SDS011;37312;47.550;18.818;2022-07-23T09:05:20;5.57;;;4.95;;
51236;SDS011;37312;47.550;18.818;2022-07-23T09:10:55;5.18;;;4.65;;
51236;SDS011;37312;47.550;18.818;2022-07-23T09:16:05;8.68;;;5.40;;
51236;SDS011;37312;47.550;18.818;2022-07-23T09:21:10;5.72;;;5.22;;
51236;SDS011;37312;47.550;18.818;2022-07-23T09:23:45;5.60;;;5.30;;
51236;SDS011;37312;47.550;18.818;2022-07-23T09:26:19;9.35;;;5.10;;
51236;SDS011;37312;47.550;18.818;2022-07-23T09:31:47;5.20;;;4.82;;
51236;SDS011;37312;47.550;18.818;2022-07-23T09:36:42;5.97;;;5.28;;
51236;SDS011;37312;47.550;18.818;2022-07-23T09:39:09;5.07;;;4.68;;
51236;SDS011;37312;47.550;18.818;2022-07-23T09:41:37;5.80;;;5.30;;
51236;SDS011;37312;47.550;18.818;2022-07-23T09:44:13;4.97;;;4.68;;
51236;SDS011;37312;47.550;18.818;2022-07-23T09:46:42;5.32;;;4.90;;
51236;SDS011;37312;47.550;18.818;2022-07-23T09:49:10;10.70;;;6.53;;
51236;SDS011;37312;47.550;18.818;2022-07-23T09:51:44;5.60;;;5.10;;
51236;SDS011;37312;47.550;18.818;2022-07-23T09:56:52;7.15;;;4.95;;
51236;SDS011;37312;47.550;18.818;2022-07-23T09:59:21;5.50;;;5.10;;
51236;SDS011;37312;47.550;18.818;2022-07-23T10:01:50;9.10;;;5.45;;
51236;SDS011;37312;47.550;18.818;2022-07-23T10:04:18;6.32;;;5.93;;
51236;SDS011;37312;47.550;18.818;2022-07-23T10:06:47;5.97;;;5.57;;
51236;SDS011;37312;47.550;18.818;2022-07-23T10:09:16;5.55;;;5.15;;
51236;SDS011;37312;47.550;18.818;2022-07-23T10:11:50;11.60;;;6.00;;
51236;SDS011;37312;47.550;18.818;2022-07-23T10:14:16;5.93;;;5.43;;
51236;SDS011;37312;47.550;18.818;2022-07-23T10:16:43;5.57;;;5.07;;
51236;SDS011;37312;47.550;18.818;2022-07-23T10:19:09;6.93;;;5.85;;
51236;SDS011;37312;47.550;18.818;2022-07-23T10:24:30;6.80;;;5.50;;
51236;SDS011;37312;47.550;18.818;2022-07-23T10:33:17;8.98;;;5.97;;
51236;SDS011;37312;47.550;18.818;2022-07-23T10:36:09;6.55;;;6.15;;
51236;SDS011;37312;47.550;18.818;2022-07-23T10:38:54;5.78;;;5.28;;
51236;SDS011;37312;47.550;18.818;2022-07-23T10:46:56;6.28;;;5.62;;
51236;SDS011;37312;47.550;18.818;2022-07-23T10:49:30;6.05;;;5.20;;
51236;SDS011;37312;47.550;18.818;2022-07-23T10:57:27;6.87;;;6.37;;
51236;SDS011;37312;47.550;18.818;2022-07-23T11:05:05;9.30;;;6.85;;
51236;SDS011;37312;47.550;18.818;2022-07-23T11:07:33;6.62;;;6.12;;
51236;SDS011;37312;47.550;18.818;2022-07-23T11:10:00;5.60;;;5.20;;
51236;SDS011;37312;47.550;18.818;2022-07-23T11:17:37;6.90;;;5.95;;
51236;SDS011;37312;47.550;18.818;2022-07-23T11:22:46;7.97;;;7.20;;
51236;SDS011;37312;47.550;18.818;2022-07-23T11:27:46;8.13;;;7.15;;
51236;SDS011;37312;47.550;18.818;2022-07-23T11:30:56;8.07;;;6.90;;
51236;SDS011;37312;47.550;18.818;2022-07-23T11:35:33;6.65;;;5.65;;
51236;SDS011;37312;47.550;18.818;2022-07-23T11:38:08;11.98;;;7.12;;
51236;SDS011;37312;47.550;18.818;2022-07-23T11:40:42;6.30;;;5.90;;
51236;SDS011;37312;47.550;18.818;2022-07-23T11:43:10;7.47;;;6.22;;
51236;SDS011;37312;47.550;18.818;2022-07-23T11:45:40;6.53;;;6.03;;
51236;SDS011;37312;47.550;18.818;2022-07-23T11:48:09;7.87;;;7.10;;
51236;SDS011;37312;47.550;18.818;2022-07-23T11:50:41;8.35;;;7.65;;
51236;SDS011;37312;47.550;18.818;2022-07-23T11:53:07;7.65;;;7.05;;
51236;SDS011;37312;47.550;18.818;2022-07-23T11:55:33;7.82;;;7.22;;
51236;SDS011;37312;47.550;18.818;2022-07-23T11:57:58;7.72;;;7.12;;
51236;SDS011;37312;47.550;18.818;2022-07-23T12:00:27;9.68;;;8.40;;
51236;SDS011;37312;47.550;18.818;2022-07-23T12:02:56;9.05;;;8.23;;
51236;SDS011;37312;47.550;18.818;2022-07-23T12:05:29;6.75;;;6.10;;
51236;SDS011;37312;47.550;18.818;2022-07-23T12:07:57;7.55;;;6.30;;
51236;SDS011;37312;47.550;18.818;2022-07-23T12:10:25;7.80;;;7.10;;
51236;SDS011;37312;47.550;18.818;2022-07-23T12:12:57;6.87;;;6.43;;
51236;SDS011;37312;47.550;18.818;2022-07-23T12:15:35;6.80;;;6.30;;
51236;SDS011;37312;47.550;18.818;2022-07-23T12:18:13;9.52;;;7.85;;
51236;SDS011;37312;47.550;18.818;2022-07-23T12:20:45;10.82;;;7.50;;
51236;SDS011;37312;47.550;18.818;2022-07-23T12:23:14;8.15;;;6.95;;
51236;SDS011;37312;47.550;18.818;2022-07-23T12:25:42;7.95;;;7.20;;
51236;SDS011;37312;47.550;18.818;2022-07-23T12:28:13;7.90;;;7.30;;
51236;SDS011;37312;47.550;18.818;2022-07-23T12:31:03;8.02;;;7.30;;
51236;SDS011;37312;47.550;18.818;2022-07-23T12:33:37;6.62;;;6.03;;
51236;SDS011;37312;47.550;18.818;2022-07-23T12:36:08;14.13;;;9.32;;
51236;SDS011;37312;47.550;18.818;2022-07-23T12:38:39;7.70;;;6.95;;
51236;SDS011;37312;47.550;18.818;2022-07-23T12:41:15;6.62;;;5.97;;
51236;SDS011;37312;47.550;18.818;2022-07-23T12:43:42;7.82;;;7.00;;
51236;SDS011;37312;47.550;18.818;2022-07-23T12:53:45;8.55;;;6.82;;
51236;SDS011;37312;47.550;18.818;2022-07-23T12:56:17;6.75;;;6.28;;
51236;SDS011;37312;47.550;18.818;2022-07-23T12:58:56;12.75;;;7.80;;
51236;SDS011;37312;47.550;18.818;2022-07-23T13:01:33;9.60;;;7.47;;
51236;SDS011;37312;47.550;18.818;2022-07-23T13:06:50;7.45;;;6.85;;
51236;SDS011;37312;47.550;18.818;2022-07-23T13:09:19;7.15;;;6.57;;
51236;SDS011;37312;47.550;18.818;2022-07-23T13:11:47;8.02;;;7.43;;
51236;SDS011;37312;47.550;18.818;2022-07-23T13:14:14;7.75;;;7.05;;
51236;SDS011;37312;47.550;18.818;2022-07-23T13:16:42;7.55;;;6.22;;
51236;SDS011;37312;47.550;18.818;2022-07-23T13:19:08;8.05;;;7.25;;
51236;SDS011;37312;47.550;18.818;2022-07-23T13:21:34;9.98;;;7.53;;
51236;SDS011;37312;47.550;18.818;2022-07-23T13:24:00;8.18;;;7.57;;
51236;SDS011;37312;47.550;18.818;2022-07-23T13:26:27;6.60;;;6.07;;
51236;SDS011;37312;47.550;18.818;2022-07-23T13:28:53;9.30;;;7.47;;
51236;SDS011;37312;47.550;18.818;2022-07-23T13:31:19;7.00;;;6.40;;
51236;SDS011;37312;47.550;18.818;2022-07-23T13:33:45;7.35;;;6.75;;
51236;SDS011;37312;47.550;18.818;2022-07-23T13:36:12;6.55;;;6.05;;
51236;SDS011;37312;47.550;18.818;2022-07-23T13:38:38;6.87;;;6.37;;
51236;SDS011;37312;47.550;18.818;2022-07-23T13:41:04;6.90;;;6.28;;
51236;SDS011;37312;47.550;18.818;2022-07-23T13:43:31;12.35;;;6.68;;
51236;SDS011;37312;47.550;18.818;2022-07-23T13:45:57;7.65;;;6.60;;
51236;SDS011;37312;47.550;18.818;2022-07-23T13:48:23;8.15;;;7.37;;
51236;SDS011;37312;47.550;18.818;2022-07-23T13:50:50;7.00;;;6.40;;
51236;SDS011;37312;47.550;18.818;2022-07-23T13:53:17;9.18;;;6.95;;
51236;SDS011;37312;47.550;18.818;2022-07-23T13:55:45;6.75;;;6.25;;
51236;SDS011;37312;47.550;18.818;2022-07-23T13:58:12;7.35;;;6.35;;
51236;SDS011;37312;47.550;18.818;2022-07-23T14:00:39;6.37;;;5.90;;
51236;SDS011;37312;47.550;18.818;2022-07-23T14:03:07;8.10;;;7.45;;
51236;SDS011;37312;47.550;18.818;2022-07-23T14:05:34;8.18;;;6.32;;
51236;SDS011;37312;47.550;18.818;2022-07-23T14:08:00;8.00;;;7.30;;
51236;SDS011;37312;47.550;18.818;2022-07-23T14:10:27;7.68;;;7.07;;
51236;SDS011;37312;47.550;18.818;2022-07-23T14:12:53;14.57;;;7.10;;
51236;SDS011;37312;47.550;18.818;2022-07-23T14:15:21;7.22;;;6.53;;
51236;SDS011;37312;47.550;18.818;2022-07-23T14:17:48;8.20;;;6.68;;
51236;SDS011;37312;47.550;18.818;2022-07-23T14:20:14;8.48;;;7.78;;
51236;SDS011;37312;47.550;18.818;2022-07-23T14:22:41;7.75;;;6.62;;
51236;SDS011;37312;47.550;18.818;2022-07-23T14:25:08;7.65;;;6.95;;
51236;SDS011;37312;47.550;18.818;2022-07-23T14:27:35;11.88;;;6.40;;
51236;SDS011;37312;47.550;18.818;2022-07-23T14:30:03;7.30;;;6.70;;
51236;SDS011;37312;47.550;18.818;2022-07-23T14:32:30;7.30;;;6.15;;
51236;SDS011;37312;47.550;18.818;2022-07-23T14:34:55;7.50;;;6.90;;
51236;SDS011;37312;47.550;18.818;2022-07-23T14:37:21;6.95;;;6.45;;
51236;SDS011;37312;47.550;18.818;2022-07-23T14:39:48;7.03;;;6.53;;
51236;SDS011;37312;47.550;18.818;2022-07-23T14:42:14;7.35;;;6.65;;
51236;SDS011;37312;47.550;18.818;2022-07-23T14:44:40;8.52;;;7.68;;
51236;SDS011;37312;47.550;18.818;2022-07-23T14:47:07;8.43;;;7.50;;
51236;SDS011;37312;47.550;18.818;2022-07-23T14:49:34;8.07;;;7.35;;
51236;SDS011;37312;47.550;18.818;2022-07-23T14:52:00;8.88;;;6.72;;
51236;SDS011;37312;47.550;18.818;2022-07-23T14:54:27;7.00;;;6.37;;
51236;SDS011;37312;47.550;18.818;2022-07-23T14:56:56;9.90;;;7.32;;
51236;SDS011;37312;47.550;18.818;2022-07-23T14:59:24;7.57;;;6.90;;
51236;SDS011;37312;47.550;18.818;2022-07-23T15:01:50;9.02;;;6.10;;
51236;SDS011;37312;47.550;18.818;2022-07-23T15:04:17;8.35;;;7.57;;
51236;SDS011;37312;47.550;18.818;2022-07-23T15:06:43;7.05;;;6.55;;
51236;SDS011;37312;47.550;18.818;2022-07-23T15:09:10;11.55;;;7.35;;
51236;SDS011;37312;47.550;18.818;2022-07-23T15:11:36;7.50;;;6.90;;
51236;SDS011;37312;47.550;18.818;2022-07-23T15:14:03;8.30;;;7.70;;
51236;SDS011;37312;47.550;18.818;2022-07-23T15:16:30;11.73;;;9.80;;
51236;SDS011;37312;47.550;18.818;2022-07-23T15:18:56;35.00;;;13.38;;
51236;SDS011;37312;47.550;18.818;2022-07-23T15:21:22;20.83;;;15.27;;
51236;SDS011;37312;47.550;18.818;2022-07-23T15:23:49;26.40;;;15.00;;
51236;SDS011;37312;47.550;18.818;2022-07-23T15:26:15;29.52;;;14.05;;
51236;SDS011;37312;47.550;18.818;2022-07-23T15:28:41;26.50;;;13.65;;
51236;SDS011;37312;47.550;18.818;2022-07-23T15:31:07;49.90;;;14.23;;
51236;SDS011;37312;47.550;18.818;2022-07-23T15:33:33;20.52;;;10.45;;
51236;SDS011;37312;47.550;18.818;2022-07-23T15:36:00;12.13;;;11.15;;
51236;SDS011;37312;47.550;18.818;2022-07-23T15:38:27;12.02;;;11.12;;
51236;SDS011;37312;47.550;18.818;2022-07-23T15:40:54;13.73;;;12.32;;
51236;SDS011;37312;47.550;18.818;2022-07-23T15:43:21;13.88;;;12.63;;